sensor_id;sensor_type;location;lat;lon;timestamp;P1;durP1;ratioP1;P2;durP2;ratioP2
21697;SDS011;11010;49.548;11.926;2023-11-21T00:00:46;4.10;;;1.17;;
21697;SDS011;11010;49.548;11.926;2023-11-21T00:03:14;5.27;;;1.10;;
21697;SDS011;11010;49.548;11.926;2023-11-21T00:05:42;4.20;;;1.00;;
21697;SDS011;11010;49.548;11.926;2023-11-21T00:08:10;5.83;;;1.10;;
21697;SDS011;11010;49.548;11.926;2023-11-21T00:10:38;5.33;;;1.30;;
21697;SDS011;11010;49.548;11.926;2023-11-21T00:13:06;4.47;;;1.20;;
21697;SDS011;11010;49.548;11.926;2023-11-21T00:15:34;6.83;;;1.17;;
21697;SDS011;11010;49.548;11.926;2023-11-21T00:18:02;6.50;;;1.30;;
21697;SDS011;11010;49.548;11.926;2023-11-21T00:20:30;5.57;;;1.37;;
21697;SDS011;11010;49.548;11.926;2023-11-21T00:22:58;6.53;;;1.30;;
21697;SDS011;11010;49.548;11.926;2023-11-21T00:25:29;5.90;;;1.60;;
21697;SDS011;11010;49.548;11.926;2023-11-21T00:27:58;4.70;;;1.20;;
21697;SDS011;11010;49.548;11.926;2023-11-21T00:30:28;6.73;;;1.27;;
21697;SDS011;11010;49.548;11.926;2023-11-21T00:32:57;6.13;;;1.20;;
21697;SDS011;11010;49.548;11.926;2023-11-21T00:35:25;6.13;;;1.27;;
21697;SDS011;11010;49.548;11.926;2023-11-21T00:37:53;6.97;;;1.17;;
21697;SDS011;11010;49.548;11.926;2023-11-21T00:40:21;4.30;;;1.10;;
21697;SDS011;11010;49.548;11.926;2023-11-21T00:42:49;5.20;;;1.13;;
21697;SDS011;11010;49.548;11.926;2023-11-21T00:45:17;5.40;;;1.20;;
21697;SDS011;11010;49.548;11.926;2023-11-21T00:47:45;4.13;;;1.03;;
21697;SDS011;11010;49.548;11.926;2023-11-21T00:50:12;6.10;;;1.30;;
21697;SDS011;11010;49.548;11.926;2023-11-21T00:52:40;4.57;;;1.20;;
21697;SDS011;11010;49.548;11.926;2023-11-21T00:55:08;4.73;;;1.30;;
21697;SDS011;11010;49.548;11.926;2023-11-21T00:57:37;4.93;;;1.13;;
21697;SDS011;11010;49.548;11.926;2023-11-21T01:00:05;4.80;;;1.13;;
21697;SDS011;11010;49.548;11.926;2023-11-21T01:02:44;5.43;;;1.20;;
21697;SDS011;11010;49.548;11.926;2023-11-21T01:05:12;4.57;;;1.10;;
21697;SDS011;11010;49.548;11.926;2023-11-21T01:07:40;4.93;;;1.20;;
21697;SDS011;11010;49.548;11.926;2023-11-21T01:10:08;4.87;;;1.20;;
21697;SDS011;11010;49.548;11.926;2023-11-21T01:12:37;4.87;;;1.10;;
21697;SDS011;11010;49.548;11.926;2023-11-21T01:15:05;7.23;;;1.30;;
21697;SDS011;11010;49.548;11.926;2023-11-21T01:17:38;4.30;;;1.10;;
21697;SDS011;11010;49.548;11.926;2023-11-21T01:20:08;5.70;;;1.23;;
21697;SDS011;11010;49.548;11.926;2023-11-21T01:22:40;5.20;;;1.20;;
21697;SDS011;11010;49.548;11.926;2023-11-21T01:25:08;4.90;;;1.13;;
21697;SDS011;11010;49.548;11.926;2023-11-21T01:27:37;4.57;;;1.10;;
21697;SDS011;11010;49.548;11.926;2023-11-21T01:30:05;4.90;;;1.20;;
21697;SDS011;11010;49.548;11.926;2023-11-21T01:32:34;4.03;;;1.10;;
21697;SDS011;11010;49.548;11.926;2023-11-21T01:35:02;6.33;;;1.20;;
21697;SDS011;11010;49.548;11.926;2023-11-21T01:37:32;4.27;;;1.10;;
21697;SDS011;11010;49.548;11.926;2023-11-21T01:40:00;3.50;;;1.00;;
21697;SDS011;11010;49.548;11.926;2023-11-21T01:42:29;5.27;;;1.10;;
21697;SDS011;11010;49.548;11.926;2023-11-21T01:44:57;5.17;;;1.07;;
21697;SDS011;11010;49.548;11.926;2023-11-21T01:47:25;3.13;;;0.80;;
21697;SDS011;11010;49.548;11.926;2023-11-21T01:49:53;3.70;;;0.90;;
21697;SDS011;11010;49.548;11.926;2023-11-21T01:52:21;4.13;;;1.10;;
21697;SDS011;11010;49.548;11.926;2023-11-21T01:54:49;2.97;;;0.90;;
21697;SDS011;11010;49.548;11.926;2023-11-21T01:57:20;3.37;;;1.00;;
21697;SDS011;11010;49.548;11.926;2023-11-21T01:59:48;2.77;;;0.90;;
21697;SDS011;11010;49.548;11.926;2023-11-21T02:02:16;7.03;;;1.10;;
21697;SDS011;11010;49.548;11.926;2023-11-21T02:04:44;4.13;;;1.00;;
21697;SDS011;11010;49.548;11.926;2023-11-21T02:07:12;4.17;;;0.93;;
21697;SDS011;11010;49.548;11.926;2023-11-21T02:09:40;2.87;;;0.90;;
21697;SDS011;11010;49.548;11.926;2023-11-21T02:12:12;4.07;;;0.80;;
21697;SDS011;11010;49.548;11.926;2023-11-21T02:14:40;3.33;;;0.90;;
21697;SDS011;11010;49.548;11.926;2023-11-21T02:17:07;4.67;;;0.90;;
21697;SDS011;11010;49.548;11.926;2023-11-21T02:19:35;4.87;;;0.90;;
21697;SDS011;11010;49.548;11.926;2023-11-21T02:22:03;4.03;;;0.90;;
21697;SDS011;11010;49.548;11.926;2023-11-21T02:24:33;4.03;;;0.93;;
21697;SDS011;11010;49.548;11.926;2023-11-21T02:27:01;2.60;;;0.90;;
21697;SDS011;11010;49.548;11.926;2023-11-21T02:29:28;4.40;;;1.00;;
21697;SDS011;11010;49.548;11.926;2023-11-21T02:31:56;3.93;;;1.00;;
21697;SDS011;11010;49.548;11.926;2023-11-21T02:34:24;3.77;;;0.90;;
21697;SDS011;11010;49.548;11.926;2023-11-21T02:36:52;3.83;;;1.10;;
21697;SDS011;11010;49.548;11.926;2023-11-21T02:39:20;3.83;;;1.27;;
21697;SDS011;11010;49.548;11.926;2023-11-21T02:41:49;4.97;;;1.20;;
21697;SDS011;11010;49.548;11.926;2023-11-21T02:44:17;3.43;;;1.07;;
21697;SDS011;11010;49.548;11.926;2023-11-21T02:46:45;4.63;;;1.20;;
21697;SDS011;11010;49.548;11.926;2023-11-21T02:49:14;3.80;;;1.10;;
21697;SDS011;11010;49.548;11.926;2023-11-21T02:51:42;4.63;;;1.20;;
21697;SDS011;11010;49.548;11.926;2023-11-21T02:54:11;2.93;;;1.00;;
21697;SDS011;11010;49.548;11.926;2023-11-21T02:56:38;3.30;;;0.90;;
21697;SDS011;11010;49.548;11.926;2023-11-21T02:59:06;5.33;;;1.10;;
21697;SDS011;11010;49.548;11.926;2023-11-21T03:01:34;4.40;;;1.10;;
21697;SDS011;11010;49.548;11.926;2023-11-21T03:04:02;2.67;;;0.90;;
21697;SDS011;11010;49.548;11.926;2023-11-21T03:06:30;3.40;;;1.00;;
21697;SDS011;11010;49.548;11.926;2023-11-21T03:08:58;6.43;;;1.07;;
21697;SDS011;11010;49.548;11.926;2023-11-21T03:11:26;2.57;;;0.90;;
21697;SDS011;11010;49.548;11.926;2023-11-21T03:13:53;4.13;;;1.10;;
21697;SDS011;11010;49.548;11.926;2023-11-21T03:16:21;3.47;;;1.00;;
21697;SDS011;11010;49.548;11.926;2023-11-21T03:18:49;3.97;;;1.00;;
21697;SDS011;11010;49.548;11.926;2023-11-21T03:21:19;3.67;;;1.00;;
21697;SDS011;11010;49.548;11.926;2023-11-21T03:23:47;4.37;;;1.00;;
21697;SDS011;11010;49.548;11.926;2023-11-21T03:26:15;3.80;;;1.00;;
21697;SDS011;11010;49.548;11.926;2023-11-21T03:28:43;2.93;;;0.90;;
21697;SDS011;11010;49.548;11.926;2023-11-21T03:31:11;3.30;;;0.97;;
21697;SDS011;11010;49.548;11.926;2023-11-21T03:33:38;3.73;;;1.00;;
21697;SDS011;11010;49.548;11.926;2023-11-21T03:36:06;2.97;;;0.90;;
21697;SDS011;11010;49.548;11.926;2023-11-21T03:38:34;3.20;;;1.00;;
21697;SDS011;11010;49.548;11.926;2023-11-21T03:41:02;3.60;;;0.90;;
21697;SDS011;11010;49.548;11.926;2023-11-21T03:43:30;4.37;;;1.10;;
21697;SDS011;11010;49.548;11.926;2023-11-21T03:45:58;3.07;;;0.90;;
21697;SDS011;11010;49.548;11.926;2023-11-21T03:48:26;3.50;;;0.90;;
21697;SDS011;11010;49.548;11.926;2023-11-21T03:50:53;3.33;;;0.93;;
21697;SDS011;11010;49.548;11.926;2023-11-21T03:53:21;3.93;;;1.00;;
21697;SDS011;11010;49.548;11.926;2023-11-21T03:55:49;3.23;;;0.87;;
21697;SDS011;11010;49.548;11.926;2023-11-21T03:58:17;3.50;;;1.00;;
21697;SDS011;11010;49.548;11.926;2023-11-21T04:00:46;2.63;;;0.80;;
21697;SDS011;11010;49.548;11.926;2023-11-21T04:03:15;3.07;;;0.97;;
21697;SDS011;11010;49.548;11.926;2023-11-21T04:05:43;3.10;;;0.90;;
21697;SDS011;11010;49.548;11.926;2023-11-21T04:08:12;4.60;;;1.10;;
21697;SDS011;11010;49.548;11.926;2023-11-21T04:10:40;3.87;;;0.90;;
21697;SDS011;11010;49.548;11.926;2023-11-21T04:13:08;2.93;;;0.93;;
21697;SDS011;11010;49.548;11.926;2023-11-21T04:15:37;5.23;;;1.20;;
21697;SDS011;11010;49.548;11.926;2023-11-21T04:18:04;3.63;;;1.00;;
21697;SDS011;11010;49.548;11.926;2023-11-21T04:20:32;2.80;;;0.90;;
21697;SDS011;11010;49.548;11.926;2023-11-21T04:23:00;2.43;;;0.87;;
21697;SDS011;11010;49.548;11.926;2023-11-21T04:25:28;2.57;;;0.80;;
21697;SDS011;11010;49.548;11.926;2023-11-21T04:27:56;2.63;;;0.80;;
21697;SDS011;11010;49.548;11.926;2023-11-21T04:30:24;2.83;;;0.73;;
21697;SDS011;11010;49.548;11.926;2023-11-21T04:32:51;4.00;;;1.00;;
21697;SDS011;11010;49.548;11.926;2023-11-21T04:35:19;5.37;;;1.00;;
21697;SDS011;11010;49.548;11.926;2023-11-21T04:37:47;2.27;;;0.80;;
21697;SDS011;11010;49.548;11.926;2023-11-21T04:40:15;3.17;;;0.83;;
21697;SDS011;11010;49.548;11.926;2023-11-21T04:42:43;3.70;;;0.93;;
21697;SDS011;11010;49.548;11.926;2023-11-21T04:45:11;2.83;;;0.80;;
21697;SDS011;11010;49.548;11.926;2023-11-21T04:47:39;3.37;;;0.80;;
21697;SDS011;11010;49.548;11.926;2023-11-21T04:50:07;4.83;;;0.80;;
21697;SDS011;11010;49.548;11.926;2023-11-21T04:52:35;3.10;;;0.80;;
21697;SDS011;11010;49.548;11.926;2023-11-21T04:55:03;3.17;;;0.90;;
21697;SDS011;11010;49.548;11.926;2023-11-21T04:57:33;3.83;;;1.03;;
21697;SDS011;11010;49.548;11.926;2023-11-21T05:00:01;4.47;;;1.00;;
21697;SDS011;11010;49.548;11.926;2023-11-21T05:02:32;4.07;;;1.00;;
21697;SDS011;11010;49.548;11.926;2023-11-21T05:05:05;4.57;;;0.93;;
21697;SDS011;11010;49.548;11.926;2023-11-21T05:07:34;3.57;;;0.90;;
21697;SDS011;11010;49.548;11.926;2023-11-21T05:10:03;4.80;;;1.20;;
21697;SDS011;11010;49.548;11.926;2023-11-21T05:12:34;3.17;;;0.97;;
21697;SDS011;11010;49.548;11.926;2023-11-21T05:15:06;3.40;;;0.93;;
21697;SDS011;11010;49.548;11.926;2023-11-21T05:17:40;3.87;;;1.00;;
21697;SDS011;11010;49.548;11.926;2023-11-21T05:20:10;4.40;;;1.00;;
21697;SDS011;11010;49.548;11.926;2023-11-21T05:22:39;4.50;;;0.90;;
21697;SDS011;11010;49.548;11.926;2023-11-21T05:25:07;3.73;;;0.97;;
21697;SDS011;11010;49.548;11.926;2023-11-21T05:27:35;3.03;;;0.90;;
21697;SDS011;11010;49.548;11.926;2023-11-21T05:30:04;4.10;;;0.90;;
21697;SDS011;11010;49.548;11.926;2023-11-21T05:32:32;2.67;;;0.90;;
21697;SDS011;11010;49.548;11.926;2023-11-21T05:35:01;5.23;;;1.07;;
21697;SDS011;11010;49.548;11.926;2023-11-21T05:37:29;4.67;;;0.90;;
21697;SDS011;11010;49.548;11.926;2023-11-21T05:39:59;4.17;;;1.10;;
21697;SDS011;11010;49.548;11.926;2023-11-21T05:42:32;4.00;;;1.00;;
21697;SDS011;11010;49.548;11.926;2023-11-21T05:44:59;3.07;;;1.00;;
21697;SDS011;11010;49.548;11.926;2023-11-21T05:47:40;3.77;;;0.90;;
21697;SDS011;11010;49.548;11.926;2023-11-21T05:50:09;3.90;;;1.00;;
21697;SDS011;11010;49.548;11.926;2023-11-21T05:52:39;3.57;;;1.00;;
21697;SDS011;11010;49.548;11.926;2023-11-21T05:55:07;3.70;;;1.00;;
21697;SDS011;11010;49.548;11.926;2023-11-21T05:57:35;3.10;;;1.00;;
21697;SDS011;11010;49.548;11.926;2023-11-21T06:00:04;4.77;;;1.10;;
21697;SDS011;11010;49.548;11.926;2023-11-21T06:02:42;3.43;;;1.03;;
21697;SDS011;11010;49.548;11.926;2023-11-21T06:05:10;3.70;;;0.90;;
21697;SDS011;11010;49.548;11.926;2023-11-21T06:07:38;4.27;;;1.07;;
21697;SDS011;11010;49.548;11.926;2023-11-21T06:10:07;4.83;;;1.20;;
21697;SDS011;11010;49.548;11.926;2023-11-21T06:12:37;2.80;;;1.00;;
21697;SDS011;11010;49.548;11.926;2023-11-21T06:15:07;5.07;;;1.17;;
21697;SDS011;11010;49.548;11.926;2023-11-21T06:17:35;6.13;;;1.17;;
21697;SDS011;11010;49.548;11.926;2023-11-21T06:20:04;5.43;;;1.10;;
21697;SDS011;11010;49.548;11.926;2023-11-21T06:22:36;4.33;;;1.27;;
21697;SDS011;11010;49.548;11.926;2023-11-21T06:25:04;4.90;;;1.10;;
21697;SDS011;11010;49.548;11.926;2023-11-21T06:27:33;4.23;;;1.03;;
21697;SDS011;11010;49.548;11.926;2023-11-21T06:30:01;3.57;;;1.07;;
21697;SDS011;11010;49.548;11.926;2023-11-21T06:32:29;4.57;;;1.17;;
21697;SDS011;11010;49.548;11.926;2023-11-21T06:34:57;5.67;;;1.50;;
21697;SDS011;11010;49.548;11.926;2023-11-21T06:37:28;6.27;;;1.30;;
21697;SDS011;11010;49.548;11.926;2023-11-21T06:39:56;5.03;;;1.30;;
21697;SDS011;11010;49.548;11.926;2023-11-21T06:42:25;5.23;;;1.20;;
21697;SDS011;11010;49.548;11.926;2023-11-21T06:44:53;5.63;;;1.13;;
21697;SDS011;11010;49.548;11.926;2023-11-21T06:47:23;4.77;;;1.10;;
21697;SDS011;11010;49.548;11.926;2023-11-21T06:49:55;5.23;;;1.23;;
21697;SDS011;11010;49.548;11.926;2023-11-21T06:52:23;4.27;;;1.10;;
21697;SDS011;11010;49.548;11.926;2023-11-21T06:54:51;4.83;;;1.10;;
21697;SDS011;11010;49.548;11.926;2023-11-21T06:57:18;4.03;;;1.10;;
21697;SDS011;11010;49.548;11.926;2023-11-21T06:59:48;4.40;;;1.27;;
21697;SDS011;11010;49.548;11.926;2023-11-21T07:02:17;5.57;;;1.50;;
21697;SDS011;11010;49.548;11.926;2023-11-21T07:04:45;8.93;;;3.00;;
21697;SDS011;11010;49.548;11.926;2023-11-21T07:07:13;7.10;;;1.63;;
21697;SDS011;11010;49.548;11.926;2023-11-21T07:09:41;9.13;;;2.47;;
21697;SDS011;11010;49.548;11.926;2023-11-21T07:12:09;7.40;;;2.00;;
21697;SDS011;11010;49.548;11.926;2023-11-21T07:14:37;7.33;;;2.30;;
21697;SDS011;11010;49.548;11.926;2023-11-21T07:17:07;7.83;;;2.10;;
21697;SDS011;11010;49.548;11.926;2023-11-21T07:19:35;7.63;;;2.23;;
21697;SDS011;11010;49.548;11.926;2023-11-21T07:22:03;7.07;;;1.60;;
21697;SDS011;11010;49.548;11.926;2023-11-21T07:24:32;5.87;;;1.60;;
21697;SDS011;11010;49.548;11.926;2023-11-21T07:27:00;6.30;;;1.50;;
21697;SDS011;11010;49.548;11.926;2023-11-21T07:29:28;6.57;;;1.50;;
21697;SDS011;11010;49.548;11.926;2023-11-21T07:32:00;6.80;;;1.77;;
21697;SDS011;11010;49.548;11.926;2023-11-21T07:34:27;7.13;;;1.83;;
21697;SDS011;11010;49.548;11.926;2023-11-21T07:36:55;5.97;;;1.50;;
21697;SDS011;11010;49.548;11.926;2023-11-21T07:39:23;7.17;;;1.73;;
21697;SDS011;11010;49.548;11.926;2023-11-21T07:41:52;7.23;;;1.73;;
21697;SDS011;11010;49.548;11.926;2023-11-21T07:44:19;6.53;;;1.70;;
21697;SDS011;11010;49.548;11.926;2023-11-21T07:46:48;7.03;;;1.60;;
21697;SDS011;11010;49.548;11.926;2023-11-21T07:49:18;7.20;;;1.57;;
21697;SDS011;11010;49.548;11.926;2023-11-21T07:51:47;5.90;;;1.67;;
21697;SDS011;11010;49.548;11.926;2023-11-21T07:54:15;6.80;;;1.83;;
21697;SDS011;11010;49.548;11.926;2023-11-21T07:56:43;7.00;;;1.70;;
21697;SDS011;11010;49.548;11.926;2023-11-21T07:59:12;6.07;;;1.70;;
21697;SDS011;11010;49.548;11.926;2023-11-21T08:01:40;6.97;;;1.77;;
21697;SDS011;11010;49.548;11.926;2023-11-21T08:04:10;6.77;;;1.90;;
21697;SDS011;11010;49.548;11.926;2023-11-21T08:06:38;6.67;;;1.70;;
21697;SDS011;11010;49.548;11.926;2023-11-21T08:09:05;8.00;;;1.80;;
21697;SDS011;11010;49.548;11.926;2023-11-21T08:11:35;6.37;;;1.80;;
21697;SDS011;11010;49.548;11.926;2023-11-21T08:14:05;8.23;;;1.90;;
21697;SDS011;11010;49.548;11.926;2023-11-21T08:16:33;7.40;;;1.80;;
21697;SDS011;11010;49.548;11.926;2023-11-21T08:19:01;6.80;;;1.60;;
21697;SDS011;11010;49.548;11.926;2023-11-21T08:21:29;7.80;;;1.90;;
21697;SDS011;11010;49.548;11.926;2023-11-21T08:23:58;5.80;;;1.70;;
21697;SDS011;11010;49.548;11.926;2023-11-21T08:26:26;6.60;;;2.00;;
21697;SDS011;11010;49.548;11.926;2023-11-21T08:28:54;7.07;;;1.90;;
21697;SDS011;11010;49.548;11.926;2023-11-21T08:31:24;6.70;;;1.90;;
21697;SDS011;11010;49.548;11.926;2023-11-21T08:33:52;6.70;;;1.77;;
21697;SDS011;11010;49.548;11.926;2023-11-21T08:36:23;7.50;;;2.00;;
21697;SDS011;11010;49.548;11.926;2023-11-21T08:38:52;6.57;;;1.83;;
21697;SDS011;11010;49.548;11.926;2023-11-21T08:41:20;6.90;;;2.10;;
21697;SDS011;11010;49.548;11.926;2023-11-21T08:43:49;6.87;;;1.90;;
21697;SDS011;11010;49.548;11.926;2023-11-21T08:46:18;7.40;;;2.10;;
21697;SDS011;11010;49.548;11.926;2023-11-21T08:48:47;6.60;;;1.73;;
21697;SDS011;11010;49.548;11.926;2023-11-21T08:51:15;7.30;;;1.93;;
21697;SDS011;11010;49.548;11.926;2023-11-21T08:53:43;7.70;;;2.10;;
21697;SDS011;11010;49.548;11.926;2023-11-21T08:56:14;6.90;;;2.07;;
21697;SDS011;11010;49.548;11.926;2023-11-21T08:58:42;7.23;;;1.93;;
21697;SDS011;11010;49.548;11.926;2023-11-21T09:01:10;6.70;;;2.00;;
21697;SDS011;11010;49.548;11.926;2023-11-21T09:03:39;6.47;;;1.93;;
21697;SDS011;11010;49.548;11.926;2023-11-21T09:06:07;7.57;;;1.90;;
21697;SDS011;11010;49.548;11.926;2023-11-21T09:08:36;6.60;;;1.80;;
21697;SDS011;11010;49.548;11.926;2023-11-21T09:11:04;7.70;;;2.10;;
21697;SDS011;11010;49.548;11.926;2023-11-21T09:13:32;5.80;;;1.53;;
21697;SDS011;11010;49.548;11.926;2023-11-21T09:16:01;7.37;;;1.80;;
21697;SDS011;11010;49.548;11.926;2023-11-21T09:18:30;7.23;;;2.00;;
21697;SDS011;11010;49.548;11.926;2023-11-21T09:20:58;5.97;;;1.63;;
21697;SDS011;11010;49.548;11.926;2023-11-21T09:23:25;4.60;;;1.47;;
21697;SDS011;11010;49.548;11.926;2023-11-21T09:25:53;4.93;;;1.37;;
21697;SDS011;11010;49.548;11.926;2023-11-21T09:28:24;6.03;;;1.80;;
21697;SDS011;11010;49.548;11.926;2023-11-21T09:30:54;5.73;;;1.57;;
21697;SDS011;11010;49.548;11.926;2023-11-21T09:33:21;6.07;;;1.60;;
21697;SDS011;11010;49.548;11.926;2023-11-21T09:35:51;6.83;;;1.67;;
21697;SDS011;11010;49.548;11.926;2023-11-21T09:38:19;6.30;;;1.70;;
21697;SDS011;11010;49.548;11.926;2023-11-21T09:40:47;6.77;;;1.67;;
21697;SDS011;11010;49.548;11.926;2023-11-21T09:43:17;5.60;;;1.70;;
21697;SDS011;11010;49.548;11.926;2023-11-21T09:45:53;7.67;;;1.87;;
21697;SDS011;11010;49.548;11.926;2023-11-21T09:48:21;6.07;;;1.47;;
21697;SDS011;11010;49.548;11.926;2023-11-21T09:50:51;7.37;;;2.57;;
21697;SDS011;11010;49.548;11.926;2023-11-21T09:53:21;7.10;;;1.90;;
21697;SDS011;11010;49.548;11.926;2023-11-21T09:55:51;7.23;;;1.90;;
21697;SDS011;11010;49.548;11.926;2023-11-21T09:58:20;5.43;;;1.73;;
21697;SDS011;11010;49.548;11.926;2023-11-21T10:00:55;5.73;;;1.63;;
21697;SDS011;11010;49.548;11.926;2023-11-21T10:03:25;5.60;;;1.60;;
21697;SDS011;11010;49.548;11.926;2023-11-21T10:05:53;6.63;;;1.83;;
21697;SDS011;11010;49.548;11.926;2023-11-21T10:08:27;7.47;;;2.07;;
21697;SDS011;11010;49.548;11.926;2023-11-21T10:11:12;8.43;;;1.97;;
21697;SDS011;11010;49.548;11.926;2023-11-21T10:13:42;7.13;;;2.13;;
21697;SDS011;11010;49.548;11.926;2023-11-21T10:16:13;7.50;;;2.23;;
21697;SDS011;11010;49.548;11.926;2023-11-21T10:18:43;8.73;;;2.30;;
21697;SDS011;11010;49.548;11.926;2023-11-21T10:21:12;9.00;;;2.47;;
21697;SDS011;11010;49.548;11.926;2023-11-21T10:23:40;7.87;;;2.73;;
21697;SDS011;11010;49.548;11.926;2023-11-21T10:26:11;7.57;;;2.40;;
21697;SDS011;11010;49.548;11.926;2023-11-21T10:29:00;8.60;;;3.33;;
21697;SDS011;11010;49.548;11.926;2023-11-21T10:31:30;7.67;;;2.67;;
21697;SDS011;11010;49.548;11.926;2023-11-21T10:34:17;8.93;;;3.27;;
21697;SDS011;11010;49.548;11.926;2023-11-21T10:36:45;8.17;;;2.73;;
21697;SDS011;11010;49.548;11.926;2023-11-21T10:39:14;8.47;;;2.70;;
21697;SDS011;11010;49.548;11.926;2023-11-21T10:41:44;8.37;;;2.80;;
21697;SDS011;11010;49.548;11.926;2023-11-21T10:44:14;9.33;;;3.63;;
21697;SDS011;11010;49.548;11.926;2023-11-21T10:46:50;9.47;;;3.77;;
21697;SDS011;11010;49.548;11.926;2023-11-21T10:49:22;8.03;;;2.97;;
21697;SDS011;11010;49.548;11.926;2023-11-21T10:51:52;10.17;;;4.33;;
21697;SDS011;11010;49.548;11.926;2023-11-21T10:54:21;10.47;;;4.20;;
21697;SDS011;11010;49.548;11.926;2023-11-21T10:56:49;9.13;;;3.47;;
21697;SDS011;11010;49.548;11.926;2023-11-21T10:59:18;12.07;;;4.93;;
21697;SDS011;11010;49.548;11.926;2023-11-21T11:01:47;11.23;;;5.13;;
21697;SDS011;11010;49.548;11.926;2023-11-21T11:04:18;12.67;;;5.57;;
21697;SDS011;11010;49.548;11.926;2023-11-21T11:06:50;11.97;;;5.40;;
21697;SDS011;11010;49.548;11.926;2023-11-21T11:09:18;11.23;;;5.27;;
21697;SDS011;11010;49.548;11.926;2023-11-21T11:11:46;12.87;;;5.57;;
21697;SDS011;11010;49.548;11.926;2023-11-21T11:14:15;13.37;;;5.73;;
21697;SDS011;11010;49.548;11.926;2023-11-21T11:16:45;11.63;;;5.37;;
21697;SDS011;11010;49.548;11.926;2023-11-21T11:19:16;12.50;;;5.43;;
21697;SDS011;11010;49.548;11.926;2023-11-21T11:27:48;11.33;;;3.93;;
21697;SDS011;11010;49.548;11.926;2023-11-21T11:35:10;7.07;;;2.17;;
21697;SDS011;11010;49.548;11.926;2023-11-21T11:37:41;6.20;;;1.67;;
21697;SDS011;11010;49.548;11.926;2023-11-21T11:40:12;5.13;;;1.40;;
21697;SDS011;11010;49.548;11.926;2023-11-21T11:42:57;6.33;;;1.40;;
21697;SDS011;11010;49.548;11.926;2023-11-21T11:45:26;3.73;;;1.10;;
21697;SDS011;11010;49.548;11.926;2023-11-21T11:48:00;4.90;;;1.30;;
21697;SDS011;11010;49.548;11.926;2023-11-21T11:50:29;5.67;;;1.20;;
21697;SDS011;11010;49.548;11.926;2023-11-21T11:53:11;2.97;;;1.00;;
21697;SDS011;11010;49.548;11.926;2023-11-21T11:55:40;4.47;;;1.00;;
21697;SDS011;11010;49.548;11.926;2023-11-21T11:58:08;4.40;;;1.00;;
21697;SDS011;11010;49.548;11.926;2023-11-21T12:00:36;3.20;;;0.90;;
21697;SDS011;11010;49.548;11.926;2023-11-21T12:03:08;3.53;;;0.90;;
21697;SDS011;11010;49.548;11.926;2023-11-21T12:05:37;5.07;;;0.97;;
21697;SDS011;11010;49.548;11.926;2023-11-21T12:08:10;3.17;;;0.90;;
21697;SDS011;11010;49.548;11.926;2023-11-21T12:10:39;3.53;;;0.90;;
21697;SDS011;11010;49.548;11.926;2023-11-21T12:13:07;6.20;;;1.00;;
21697;SDS011;11010;49.548;11.926;2023-11-21T12:15:37;2.40;;;1.00;;
21697;SDS011;11010;49.548;11.926;2023-11-21T12:18:07;6.37;;;1.10;;
21697;SDS011;11010;49.548;11.926;2023-11-21T12:20:36;2.77;;;0.80;;
21697;SDS011;11010;49.548;11.926;2023-11-21T12:23:09;4.80;;;1.10;;
21697;SDS011;11010;49.548;11.926;2023-11-21T12:25:38;3.27;;;0.80;;
21697;SDS011;11010;49.548;11.926;2023-11-21T12:28:09;3.47;;;0.97;;
21697;SDS011;11010;49.548;11.926;2023-11-21T12:30:38;4.70;;;1.00;;
21697;SDS011;11010;49.548;11.926;2023-11-21T12:33:06;3.67;;;1.00;;
21697;SDS011;11010;49.548;11.926;2023-11-21T12:35:36;3.93;;;0.90;;
21697;SDS011;11010;49.548;11.926;2023-11-21T12:38:05;4.10;;;1.00;;
21697;SDS011;11010;49.548;11.926;2023-11-21T12:40:36;3.23;;;0.80;;
21697;SDS011;11010;49.548;11.926;2023-11-21T12:43:04;3.83;;;1.20;;
21697;SDS011;11010;49.548;11.926;2023-11-21T12:45:34;2.43;;;0.70;;
21697;SDS011;11010;49.548;11.926;2023-11-21T12:48:05;3.90;;;1.20;;
21697;SDS011;11010;49.548;11.926;2023-11-21T12:50:38;5.10;;;1.20;;
21697;SDS011;11010;49.548;11.926;2023-11-21T12:53:07;2.73;;;0.70;;
21697;SDS011;11010;49.548;11.926;2023-11-21T12:55:37;3.30;;;1.00;;
21697;SDS011;11010;49.548;11.926;2023-11-21T12:58:06;2.57;;;0.80;;
21697;SDS011;11010;49.548;11.926;2023-11-21T13:00:45;6.50;;;1.40;;
21697;SDS011;11010;49.548;11.926;2023-11-21T13:03:14;3.57;;;0.97;;
21697;SDS011;11010;49.548;11.926;2023-11-21T13:05:50;3.07;;;1.00;;
21697;SDS011;11010;49.548;11.926;2023-11-21T13:08:21;5.07;;;1.10;;
21697;SDS011;11010;49.548;11.926;2023-11-21T13:10:52;5.03;;;1.17;;
21697;SDS011;11010;49.548;11.926;2023-11-21T13:13:23;3.50;;;1.03;;
21697;SDS011;11010;49.548;11.926;2023-11-21T13:15:53;6.20;;;1.10;;
21697;SDS011;11010;49.548;11.926;2023-11-21T13:18:24;4.30;;;1.00;;
21697;SDS011;11010;49.548;11.926;2023-11-21T13:20:57;5.40;;;1.40;;
21697;SDS011;11010;49.548;11.926;2023-11-21T13:23:26;5.43;;;1.20;;
21697;SDS011;11010;49.548;11.926;2023-11-21T13:25:54;6.40;;;1.20;;
21697;SDS011;11010;49.548;11.926;2023-11-21T13:28:32;8.17;;;1.40;;
21697;SDS011;11010;49.548;11.926;2023-11-21T13:31:01;5.60;;;1.27;;
21697;SDS011;11010;49.548;11.926;2023-11-21T13:33:38;6.37;;;1.30;;
21697;SDS011;11010;49.548;11.926;2023-11-21T13:36:08;6.77;;;1.30;;
21697;SDS011;11010;49.548;11.926;2023-11-21T13:38:37;6.80;;;1.40;;
21697;SDS011;11010;49.548;11.926;2023-11-21T13:41:10;7.13;;;1.50;;
21697;SDS011;11010;49.548;11.926;2023-11-21T13:43:41;8.33;;;1.60;;
21697;SDS011;11010;49.548;11.926;2023-11-21T13:46:14;7.67;;;1.50;;
21697;SDS011;11010;49.548;11.926;2023-11-21T13:48:49;7.93;;;1.60;;
21697;SDS011;11010;49.548;11.926;2023-11-21T13:51:22;8.27;;;1.70;;
21697;SDS011;11010;49.548;11.926;2023-11-21T13:54:03;5.83;;;1.20;;
21697;SDS011;11010;49.548;11.926;2023-11-21T13:56:36;7.33;;;1.33;;
21697;SDS011;11010;49.548;11.926;2023-11-21T13:59:06;8.90;;;1.43;;
21697;SDS011;11010;49.548;11.926;2023-11-21T14:01:55;5.63;;;1.23;;
21697;SDS011;11010;49.548;11.926;2023-11-21T14:04:25;5.57;;;1.30;;
21697;SDS011;11010;49.548;11.926;2023-11-21T14:07:10;5.50;;;1.30;;
21697;SDS011;11010;49.548;11.926;2023-11-21T14:09:53;5.83;;;1.30;;
21697;SDS011;11010;49.548;11.926;2023-11-21T14:12:21;5.07;;;1.27;;
21697;SDS011;11010;49.548;11.926;2023-11-21T14:14:50;4.40;;;1.10;;
21697;SDS011;11010;49.548;11.926;2023-11-21T14:17:17;4.30;;;1.10;;
21697;SDS011;11010;49.548;11.926;2023-11-21T14:19:49;7.23;;;1.50;;
21697;SDS011;11010;49.548;11.926;2023-11-21T14:22:17;5.93;;;1.30;;
21697;SDS011;11010;49.548;11.926;2023-11-21T14:24:45;5.27;;;1.40;;
21697;SDS011;11010;49.548;11.926;2023-11-21T14:27:14;6.30;;;1.40;;
21697;SDS011;11010;49.548;11.926;2023-11-21T14:29:42;5.17;;;1.30;;
21697;SDS011;11010;49.548;11.926;2023-11-21T14:32:11;7.40;;;1.40;;
21697;SDS011;11010;49.548;11.926;2023-11-21T14:34:41;6.47;;;1.40;;
21697;SDS011;11010;49.548;11.926;2023-11-21T14:37:14;5.53;;;1.30;;
21697;SDS011;11010;49.548;11.926;2023-11-21T14:39:42;6.83;;;1.30;;
21697;SDS011;11010;49.548;11.926;2023-11-21T14:42:29;4.60;;;1.20;;
21697;SDS011;11010;49.548;11.926;2023-11-21T14:44:57;4.73;;;1.20;;
21697;SDS011;11010;49.548;11.926;2023-11-21T14:47:30;6.33;;;1.20;;
21697;SDS011;11010;49.548;11.926;2023-11-21T14:50:00;5.77;;;1.27;;
21697;SDS011;11010;49.548;11.926;2023-11-21T14:52:48;6.87;;;1.40;;
21697;SDS011;11010;49.548;11.926;2023-11-21T14:55:26;6.03;;;1.27;;
21697;SDS011;11010;49.548;11.926;2023-11-21T14:58:10;6.63;;;1.23;;